Hauptseite
METAR-TAF:

METAR-TAF

Flughäfen :

Fliegerhorst Lechfeld

Lechfeld, Deutschland

Breite: 48-11N, Länge: 010-52E, Höhe: 555 m

Beobachtung

Neuester Wetterbericht von vor 3 Stunden und 22 Minuten, um 20:20 UTC
Wind 5 kt aus Ost/Nordost
Temperatur 2°C
Luftfeuchtigkeit 80%
Luftdruck 1037 hPa
Sichtweite 10 km oder mehr
Leicht bewölkt in der Höhe von 30000 ft

METAR: ETSL 252020Z 06005KT 9999 FEW300 02/M01 Q1037 BLU+

Zeit: 01:42 (23:42 UTC)


TAF: fehlend

Wetterbeobachtungen und Prognosen von mehr als 4000 Flughäfen (METAR und TAF Bericht).

Die verfügbaren Stationen werden durch gelbe und rote Markierungen auf der Karte dargestellt.

Führen Sie die Maus auf sie, um den Namen der Station zu sehen.

Darauf klicken, um die Beobachtung von Wetterbeobachtungen und Prognosen zu sehen.

Um die Karte zu ändern : klicken Sie auf den grünen Tasten mit einem schwarzen Kreuz Zum Vergrößern, auf den grünen Button mit einem Gedankenstrich zu verkleinern, oder auf die grünen Pfeile für benachbarte Karten.


METAR-TAF: